Time;durP1;ratioP1;P1;durP2;ratioP2;P2;SDS_P1;SDS_P2;PMS_P1;PMS_P2;Temp;Humidity;BMP_temperature;BMP_pressure;BME280_temperature;BME280_humidity;BME280_pressure;Samples;Min_cycle;Max_cycle;Signal;HPM_P1;HPM_P2
2022/08/22 00:00:17;;;;;;;5.67;3.73;;;;;;;;;;5008290;28;20497;-53
2022/08/22 00:03:09;;;;;;;3.13;2.63;;;;;;;;;;5026485;28;20425;-54
2022/08/22 00:06:08;;;;;;;4.00;2.47;;;;;;;;;;4972310;28;20466;-53
2022/08/22 00:08:39;;;;;;;4.90;2.40;;;;;;;;;;5003657;28;20439;-54
2022/08/22 00:11:15;;;;;;;4.30;3.10;;;;;;;;;;5003584;28;20934;-53
2022/08/22 00:13:47;;;;;;;5.50;2.47;;;;;;;;;;5014930;28;20513;-53
2022/08/22 00:16:16;;;;;;;4.10;2.47;;;;;;;;;;5019448;28;20522;-54
2022/08/22 00:18:48;;;;;;;5.13;2.90;;;;;;;;;;5020612;28;20442;-53
2022/08/22 00:21:17;;;;;;;5.73;2.67;;;;;;;;;;5013762;28;20470;-52
2022/08/22 00:23:45;;;;;;;4.90;2.60;;;;;;;;;;5010321;28;20490;-53
2022/08/22 00:26:20;;;;;;;3.80;2.43;;;;;;;;;;4988110;28;20476;-53
2022/08/22 00:28:48;;;;;;;5.70;3.33;;;;;;;;;;5013899;28;21023;-52
2022/08/22 00:31:20;;;;;;;5.33;2.77;;;;;;;;;;4997756;28;20434;-53
2022/08/22 00:33:55;;;;;;;7.27;3.03;;;;;;;;;;5014211;28;20439;-54
2022/08/22 00:36:26;;;;;;;4.50;2.80;;;;;;;;;;5025298;28;20430;-54
2022/08/22 00:38:54;;;;;;;3.43;2.63;;;;;;;;;;5014582;28;20471;-52
2022/08/22 00:41:30;;;;;;;4.33;3.03;;;;;;;;;;4964565;28;20799;-53
2022/08/22 00:43:56;;;;;;;2.77;2.10;;;;;;;;;;5025759;28;20510;-53
2022/08/22 00:46:37;;;;;;;3.50;2.73;;;;;;;;;;5007995;28;20962;-53
2022/08/22 00:49:12;;;;;;;6.57;2.30;;;;;;;;;;5026284;28;20470;-53
2022/08/22 00:51:43;;;;;;;4.67;2.97;;;;;;;;;;5015695;28;20431;-54
2022/08/22 00:54:09;;;;;;;4.10;2.63;;;;;;;;;;5012378;28;20428;-54
2022/08/22 00:56:45;;;;;;;6.73;3.20;;;;;;;;;;4993147;28;20795;-53
2022/08/22 00:59:26;;;;;;;3.53;2.70;;;;;;;;;;5016432;28;20433;-53
2022/08/22 01:01:58;;;;;;;4.80;2.50;;;;;;;;;;5024271;28;20575;-54
2022/08/22 01:04:40;;;;;;;2.97;2.40;;;;;;;;;;5028669;28;20524;-53
2022/08/22 01:07:24;;;;;;;4.20;3.10;;;;;;;;;;4991654;28;20471;-53
2022/08/22 01:10:13;;;;;;;3.70;2.47;;;;;;;;;;5025680;28;20811;-54
2022/08/22 01:13:03;;;;;;;6.77;2.53;;;;;;;;;;4964581;28;20462;-54
2022/08/22 01:15:29;;;;;;;5.33;2.67;;;;;;;;;;5007764;28;20522;-53
2022/08/22 01:18:14;;;;;;;5.10;3.00;;;;;;;;;;5015628;28;20499;-54
2022/08/22 01:20:40;;;;;;;2.70;2.27;;;;;;;;;;5021397;28;21000;-54
2022/08/22 01:23:06;;;;;;;4.77;2.70;;;;;;;;;;5027977;28;20451;-53
2022/08/22 01:25:50;;;;;;;3.50;2.37;;;;;;;;;;5029429;28;20216;-54
2022/08/22 01:28:34;;;;;;;3.30;2.63;;;;;;;;;;5016066;28;20663;-53
2022/08/22 01:31:19;;;;;;;4.73;2.60;;;;;;;;;;5020119;28;20432;-54
2022/08/22 01:34:03;;;;;;;6.13;3.27;;;;;;;;;;5025168;28;20443;-54
2022/08/22 01:36:35;;;;;;;3.70;2.60;;;;;;;;;;5019388;28;20431;-53
2022/08/22 01:39:10;;;;;;;2.83;2.47;;;;;;;;;;5024604;28;20434;-53
2022/08/22 01:41:47;;;;;;;3.53;2.80;;;;;;;;;;5019806;28;20476;-53
2022/08/22 01:44:23;;;;;;;4.33;2.40;;;;;;;;;;5004354;28;20814;-52
2022/08/22 01:47:00;;;;;;;5.07;2.80;;;;;;;;;;4966935;28;20482;-53
2022/08/22 01:49:27;;;;;;;3.57;2.60;;;;;;;;;;5004066;28;20509;-53
2022/08/22 01:51:59;;;;;;;4.57;2.87;;;;;;;;;;5007488;28;20450;-52
2022/08/22 01:54:41;;;;;;;5.20;2.50;;;;;;;;;;5029616;28;20445;-53
2022/08/22 01:57:07;;;;;;;5.67;2.43;;;;;;;;;;5010767;28;20446;-53
2022/08/22 01:59:38;;;;;;;4.93;3.00;;;;;;;;;;5030187;28;20546;-53
2022/08/22 02:02:23;;;;;;;5.97;3.20;;;;;;;;;;5020599;28;20437;-52
2022/08/22 02:04:55;;;;;;;4.10;2.37;;;;;;;;;;5026677;28;20439;-53
2022/08/22 02:07:25;;;;;;;6.83;3.00;;;;;;;;;;5023298;28;20473;-52
2022/08/22 02:09:54;;;;;;;4.70;2.83;;;;;;;;;;5029809;28;20427;-52
2022/08/22 02:12:23;;;;;;;3.83;2.33;;;;;;;;;;5023471;28;20435;-53
2022/08/22 02:15:00;;;;;;;5.27;2.67;;;;;;;;;;5029632;28;20497;-53
2022/08/22 02:17:28;;;;;;;3.40;2.83;;;;;;;;;;4994559;28;22089;-53
2022/08/22 02:20:14;;;;;;;4.23;3.30;;;;;;;;;;5010842;28;20427;-53
2022/08/22 02:22:52;;;;;;;3.83;2.57;;;;;;;;;;4933279;28;20458;-52
2022/08/22 02:25:24;;;;;;;5.03;2.90;;;;;;;;;;5014794;28;20434;-53
2022/08/22 02:28:02;;;;;;;4.00;2.93;;;;;;;;;;4986067;28;20913;-52
2022/08/22 02:30:30;;;;;;;5.07;2.90;;;;;;;;;;5008970;28;21013;-53
2022/08/22 02:33:07;;;;;;;4.07;2.80;;;;;;;;;;5018613;28;20468;-52
2022/08/22 02:35:32;;;;;;;5.90;3.23;;;;;;;;;;5007266;28;20525;-53
2022/08/22 02:38:04;;;;;;;5.50;3.13;;;;;;;;;;5018980;28;20472;-52
2022/08/22 02:40:33;;;;;;;3.50;2.43;;;;;;;;;;5007931;28;20180;-53
2022/08/22 02:43:17;;;;;;;3.10;2.33;;;;;;;;;;5023529;28;20437;-52
2022/08/22 02:46:02;;;;;;;4.60;3.30;;;;;;;;;;5019572;28;20474;-51
2022/08/22 02:48:44;;;;;;;3.80;2.87;;;;;;;;;;5026520;28;21197;-52
2022/08/22 02:51:29;;;;;;;5.30;2.97;;;;;;;;;;5007149;28;20529;-53
2022/08/22 02:54:15;;;;;;;5.07;2.73;;;;;;;;;;5018723;28;20479;-52
2022/08/22 02:56:45;;;;;;;6.40;2.80;;;;;;;;;;4938851;28;21003;-52
2022/08/22 02:59:14;;;;;;;5.80;3.57;;;;;;;;;;5020897;28;20435;-52
2022/08/22 03:01:44;;;;;;;8.30;2.90;;;;;;;;;;5023850;28;20437;-53
2022/08/22 03:04:20;;;;;;;5.90;3.23;;;;;;;;;;5006676;28;20435;-53
2022/08/22 03:07:06;;;;;;;4.70;2.50;;;;;;;;;;5011205;28;20521;-52
2022/08/22 03:09:36;;;;;;;4.57;3.20;;;;;;;;;;5019201;28;20489;-52
2022/08/22 03:12:18;;;;;;;3.60;2.77;;;;;;;;;;5013030;28;20442;-52
2022/08/22 03:14:47;;;;;;;6.50;3.23;;;;;;;;;;5010493;28;20916;-51
2022/08/22 03:17:15;;;;;;;6.27;2.63;;;;;;;;;;5002237;28;20431;-52
2022/08/22 03:20:19;;;;;;;5.70;3.07;;;;;;;;;;5012490;28;20434;-52
2022/08/22 03:22:45;;;;;;;3.87;2.77;;;;;;;;;;4924771;29;20440;-53
2022/08/22 03:25:11;;;;;;;4.57;3.20;;;;;;;;;;4932058;29;20443;-52
2022/08/22 03:27:41;;;;;;;6.90;2.73;;;;;;;;;;4906710;28;20427;-52
2022/08/22 03:30:12;;;;;;;3.17;2.87;;;;;;;;;;5010768;28;20670;-52
2022/08/22 03:32:52;;;;;;;7.53;3.50;;;;;;;;;;5016977;28;20447;-52
2022/08/22 03:35:26;;;;;;;3.17;2.87;;;;;;;;;;5021502;28;20441;-52
2022/08/22 03:37:54;;;;;;;3.80;3.20;;;;;;;;;;5016360;28;21003;-53
2022/08/22 03:40:20;;;;;;;4.83;3.27;;;;;;;;;;5001937;28;20435;-51
2022/08/22 03:42:46;;;;;;;5.07;3.07;;;;;;;;;;5009042;28;20423;-52
2022/08/22 03:45:18;;;;;;;4.30;2.83;;;;;;;;;;5027261;28;20514;-52
2022/08/22 03:47:43;;;;;;;8.03;3.43;;;;;;;;;;5019721;28;20224;-51
2022/08/22 03:50:22;;;;;;;8.20;3.73;;;;;;;;;;5026303;28;20454;-53
2022/08/22 03:53:07;;;;;;;3.30;2.57;;;;;;;;;;5019333;28;20274;-52
2022/08/22 03:55:51;;;;;;;4.30;3.07;;;;;;;;;;5005494;28;20415;-51
2022/08/22 03:58:20;;;;;;;5.17;2.87;;;;;;;;;;4977897;28;21099;-52
2022/08/22 04:00:52;;;;;;;4.10;3.67;;;;;;;;;;5025657;28;20431;-52
2022/08/22 04:03:37;;;;;;;4.00;2.83;;;;;;;;;;5023095;28;20449;-52
2022/08/22 04:06:21;;;;;;;4.50;2.90;;;;;;;;;;5004510;28;20846;-52
2022/08/22 04:08:50;;;;;;;4.33;2.57;;;;;;;;;;5013147;28;20956;-52
2022/08/22 04:11:20;;;;;;;3.77;2.87;;;;;;;;;;5029379;28;20984;-52
2022/08/22 04:13:49;;;;;;;7.03;4.40;;;;;;;;;;5024571;28;20499;-53
2022/08/22 04:16:34;;;;;;;5.20;3.00;;;;;;;;;;5031260;28;20439;-53
2022/08/22 04:19:06;;;;;;;5.00;3.23;;;;;;;;;;5020340;28;20434;-53
2022/08/22 04:21:32;;;;;;;7.83;3.30;;;;;;;;;;5026634;28;20473;-52
2022/08/22 04:24:01;;;;;;;5.63;3.77;;;;;;;;;;5028546;28;20417;-53
2022/08/22 04:26:40;;;;;;;3.10;2.80;;;;;;;;;;5010889;28;20506;-52
2022/08/22 04:29:07;;;;;;;3.73;2.80;;;;;;;;;;5010686;28;20534;-52
2022/08/22 04:31:35;;;;;;;6.13;3.40;;;;;;;;;;5008428;28;20427;-53
2022/08/22 04:34:01;;;;;;;7.70;3.80;;;;;;;;;;5014067;28;21385;-53
2022/08/22 04:36:27;;;;;;;4.73;3.60;;;;;;;;;;5029722;28;20442;-52
2022/08/22 04:38:53;;;;;;;3.90;3.43;;;;;;;;;;5024789;28;20188;-52
2022/08/22 04:41:23;;;;;;;4.30;3.33;;;;;;;;;;5028689;28;20189;-53
2022/08/22 04:44:11;;;;;;;6.80;3.70;;;;;;;;;;5010233;28;20438;-54
2022/08/22 04:46:38;;;;;;;4.73;3.07;;;;;;;;;;5018046;28;20510;-53
2022/08/22 04:49:10;;;;;;;4.53;3.17;;;;;;;;;;4999563;28;20439;-53
2022/08/22 04:51:39;;;;;;;3.30;2.43;;;;;;;;;;5012412;28;20439;-53
2022/08/22 04:54:24;;;;;;;4.70;3.30;;;;;;;;;;5026752;28;20468;-53
2022/08/22 04:57:09;;;;;;;3.33;3.03;;;;;;;;;;5008009;28;20677;-53
2022/08/22 04:59:35;;;;;;;3.13;2.70;;;;;;;;;;5028557;28;20525;-53
2022/08/22 05:02:04;;;;;;;4.50;3.10;;;;;;;;;;4985145;28;20692;-53
2022/08/22 05:04:44;;;;;;;3.73;3.23;;;;;;;;;;5024729;28;21356;-53
2022/08/22 05:07:11;;;;;;;4.27;3.43;;;;;;;;;;5020251;28;20560;-53
2022/08/22 05:09:37;;;;;;;5.70;3.20;;;;;;;;;;5007177;28;20458;-54
2022/08/22 05:12:06;;;;;;;4.33;3.13;;;;;;;;;;5023466;28;21005;-51
2022/08/22 05:14:32;;;;;;;4.50;3.07;;;;;;;;;;5010410;28;20436;-52
2022/08/22 05:16:57;;;;;;;11.30;3.67;;;;;;;;;;5020254;28;20476;-52
2022/08/22 05:19:33;;;;;;;5.67;3.70;;;;;;;;;;5020560;28;20203;-53
2022/08/22 05:21:59;;;;;;;4.27;3.20;;;;;;;;;;5013918;28;20519;-52
2022/08/22 05:24:33;;;;;;;4.20;3.00;;;;;;;;;;5011458;28;20531;-52
2022/08/22 05:27:02;;;;;;;6.13;3.50;;;;;;;;;;5001296;28;20562;-53
2022/08/22 05:29:28;;;;;;;5.87;2.93;;;;;;;;;;5010227;28;20547;-52
2022/08/22 05:31:56;;;;;;;7.50;3.90;;;;;;;;;;5022899;28;20971;-53
2022/08/22 05:34:22;;;;;;;4.57;3.33;;;;;;;;;;5009950;28;20460;-52
2022/08/22 05:36:51;;;;;;;4.47;4.07;;;;;;;;;;4979198;28;20463;-53
2022/08/22 05:39:18;;;;;;;5.77;3.93;;;;;;;;;;4981398;28;20443;-53
2022/08/22 05:41:44;;;;;;;5.70;3.70;;;;;;;;;;5003104;28;21371;-52
2022/08/22 05:44:17;;;;;;;3.93;3.30;;;;;;;;;;5003599;28;20530;-52
2022/08/22 05:46:44;;;;;;;6.90;3.87;;;;;;;;;;5021176;28;20936;-52
2022/08/22 05:49:17;;;;;;;5.13;3.57;;;;;;;;;;5014662;28;20444;-53
2022/08/22 05:51:48;;;;;;;6.83;3.53;;;;;;;;;;5020729;28;20464;-52
2022/08/22 05:54:15;;;;;;;7.10;4.47;;;;;;;;;;5006481;28;20435;-52
2022/08/22 05:56:43;;;;;;;6.30;4.20;;;;;;;;;;5030573;28;20462;-51
2022/08/22 05:59:21;;;;;;;6.87;4.23;;;;;;;;;;5003005;28;20851;-53
2022/08/22 06:01:51;;;;;;;6.67;3.50;;;;;;;;;;5006933;28;20450;-52
2022/08/22 06:04:20;;;;;;;6.03;4.33;;;;;;;;;;5001850;28;20418;-53
2022/08/22 06:06:50;;;;;;;8.40;3.80;;;;;;;;;;5029536;28;20499;-52
2022/08/22 06:09:32;;;;;;;8.07;4.07;;;;;;;;;;4981717;28;20731;-53
2022/08/22 06:12:00;;;;;;;4.20;3.63;;;;;;;;;;5003845;28;20866;-53
2022/08/22 06:14:42;;;;;;;4.30;3.90;;;;;;;;;;4999025;28;21103;-53
2022/08/22 06:17:18;;;;;;;5.90;4.03;;;;;;;;;;5000202;28;20412;-52
2022/08/22 06:19:45;;;;;;;6.10;4.30;;;;;;;;;;5013657;28;20457;-53
2022/08/22 06:22:13;;;;;;;6.43;4.47;;;;;;;;;;5007857;28;20427;-53
2022/08/22 06:24:39;;;;;;;4.67;3.67;;;;;;;;;;5005044;28;20453;-53
2022/08/22 06:27:07;;;;;;;10.70;4.43;;;;;;;;;;5026992;28;20471;-53
2022/08/22 06:29:35;;;;;;;5.63;4.60;;;;;;;;;;4992107;28;20470;-53
2022/08/22 06:32:02;;;;;;;9.00;5.33;;;;;;;;;;5010213;28;20488;-53
2022/08/22 06:34:30;;;;;;;8.70;4.80;;;;;;;;;;5007483;28;20435;-52
2022/08/22 06:36:56;;;;;;;7.50;4.00;;;;;;;;;;5012181;28;20523;-52
2022/08/22 06:39:23;;;;;;;5.30;4.80;;;;;;;;;;4962685;28;20448;-53
2022/08/22 06:41:54;;;;;;;5.83;5.23;;;;;;;;;;4997310;28;20443;-53
2022/08/22 06:44:24;;;;;;;5.93;4.87;;;;;;;;;;5005728;28;20893;-53
2022/08/22 06:46:52;;;;;;;6.50;4.67;;;;;;;;;;5029618;28;20479;-53
2022/08/22 06:49:18;;;;;;;7.43;4.30;;;;;;;;;;5006763;28;20435;-53
2022/08/22 06:51:44;;;;;;;6.97;4.33;;;;;;;;;;4984699;28;20451;-53
2022/08/22 06:54:16;;;;;;;7.20;4.07;;;;;;;;;;5023491;28;20184;-54
2022/08/22 06:56:43;;;;;;;11.00;5.60;;;;;;;;;;5004159;28;20304;-53
2022/08/22 06:59:13;;;;;;;5.33;4.27;;;;;;;;;;4979415;28;20438;-53
2022/08/22 07:01:43;;;;;;;10.03;5.60;;;;;;;;;;5023261;28;20498;-53
2022/08/22 07:04:09;;;;;;;6.00;4.40;;;;;;;;;;5005842;28;20423;-54
2022/08/22 07:06:35;;;;;;;11.40;5.47;;;;;;;;;;5026724;28;20522;-54
2022/08/22 07:09:01;;;;;;;5.57;4.93;;;;;;;;;;4980827;28;20452;-53
2022/08/22 07:11:31;;;;;;;7.03;5.20;;;;;;;;;;5021743;28;20504;-53
2022/08/22 07:14:05;;;;;;;8.00;4.70;;;;;;;;;;5005803;28;20426;-53
2022/08/22 07:16:48;;;;;;;9.30;4.83;;;;;;;;;;5028173;28;20976;-53
2022/08/22 07:19:31;;;;;;;5.47;4.73;;;;;;;;;;5005246;28;20580;-53
2022/08/22 07:21:57;;;;;;;5.87;4.10;;;;;;;;;;5026646;28;20802;-53
2022/08/22 07:24:27;;;;;;;6.67;4.67;;;;;;;;;;5023333;28;20473;-53
2022/08/22 07:26:53;;;;;;;7.00;4.57;;;;;;;;;;5012512;28;20466;-53
2022/08/22 07:29:28;;;;;;;4.70;4.20;;;;;;;;;;5007167;28;20442;-53
2022/08/22 07:32:18;;;;;;;6.03;4.73;;;;;;;;;;5027341;28;20825;-53
2022/08/22 07:34:53;;;;;;;6.93;4.30;;;;;;;;;;5021457;28;21169;-53
2022/08/22 07:37:22;;;;;;;6.10;3.63;;;;;;;;;;5030266;28;20434;-53
2022/08/22 07:39:50;;;;;;;5.53;4.30;;;;;;;;;;4981657;28;20447;-53
2022/08/22 07:42:17;;;;;;;6.17;4.77;;;;;;;;;;5006349;28;20512;-53
2022/08/22 07:45:04;;;;;;;5.67;4.03;;;;;;;;;;5006700;28;20804;-53
2022/08/22 07:47:38;;;;;;;7.23;3.87;;;;;;;;;;5006381;28;21305;-53
2022/08/22 07:50:06;;;;;;;4.97;4.30;;;;;;;;;;5004556;28;20428;-53
2022/08/22 07:52:43;;;;;;;4.80;4.33;;;;;;;;;;5010856;28;20533;-54
2022/08/22 07:55:17;;;;;;;5.03;3.73;;;;;;;;;;5002414;28;20445;-53
2022/08/22 07:57:44;;;;;;;5.70;4.63;;;;;;;;;;5025674;28;20938;-53
2022/08/22 08:00:17;;;;;;;11.67;3.87;;;;;;;;;;4980914;28;20451;-53
2022/08/22 08:02:48;;;;;;;4.47;3.67;;;;;;;;;;5018522;28;21005;-54
2022/08/22 08:05:14;;;;;;;6.53;4.13;;;;;;;;;;5002586;28;20957;-53
2022/08/22 08:07:40;;;;;;;4.43;4.03;;;;;;;;;;5006690;28;20470;-53
2022/08/22 08:10:07;;;;;;;4.83;4.03;;;;;;;;;;4981247;28;20439;-54
2022/08/22 08:12:50;;;;;;;12.47;4.20;;;;;;;;;;5020593;28;20439;-53
2022/08/22 08:15:18;;;;;;;5.63;3.73;;;;;;;;;;4999466;28;21045;-53
2022/08/22 08:17:44;;;;;;;7.70;4.50;;;;;;;;;;5008768;28;20446;-53
2022/08/22 08:20:11;;;;;;;6.33;3.90;;;;;;;;;;5002481;28;20470;-55
2022/08/22 08:22:37;;;;;;;5.87;4.23;;;;;;;;;;5011291;28;20302;-54
2022/08/22 08:25:03;;;;;;;6.50;4.43;;;;;;;;;;5024490;28;20438;-54
2022/08/22 08:30:18;;;;;;;6.93;4.00;;;;;;;;;;4992725;28;20441;-52
2022/08/22 08:32:52;;;;;;;4.40;3.70;;;;;;;;;;5004574;28;21240;-53
2022/08/22 08:35:22;;;;;;;5.37;3.70;;;;;;;;;;5003608;28;20431;-52
2022/08/22 08:37:49;;;;;;;6.83;3.80;;;;;;;;;;5022029;28;20446;-54
2022/08/22 08:40:35;;;;;;;5.37;3.40;;;;;;;;;;5000525;28;20466;-54
2022/08/22 08:45:50;;;;;;;4.97;4.40;;;;;;;;;;5022370;28;20455;-53
2022/08/22 08:48:35;;;;;;;5.60;4.00;;;;;;;;;;4980031;28;21925;-55
2022/08/22 08:51:01;;;;;;;5.30;3.83;;;;;;;;;;5028252;28;20800;-53
2022/08/22 08:53:27;;;;;;;5.23;4.00;;;;;;;;;;5019861;28;20431;-53
2022/08/22 08:55:52;;;;;;;5.30;4.17;;;;;;;;;;5031809;28;20438;-53
2022/08/22 08:58:27;;;;;;;5.70;3.40;;;;;;;;;;5015841;28;20185;-53
2022/08/22 09:01:15;;;;;;;6.07;3.37;;;;;;;;;;5031675;28;20175;-53
2022/08/22 09:03:44;;;;;;;5.60;4.07;;;;;;;;;;5018803;28;20432;-53
2022/08/22 09:06:29;;;;;;;4.13;3.73;;;;;;;;;;5021944;28;20513;-53
2022/08/22 09:09:06;;;;;;;4.47;4.07;;;;;;;;;;5024511;28;20838;-53
2022/08/22 09:11:57;;;;;;;4.20;3.80;;;;;;;;;;5029722;28;20551;-53
2022/08/22 09:14:45;;;;;;;4.83;4.20;;;;;;;;;;5018983;28;20649;-53
2022/08/22 09:17:22;;;;;;;4.40;4.00;;;;;;;;;;5013064;28;20513;-53
2022/08/22 09:19:48;;;;;;;5.10;3.93;;;;;;;;;;4999823;28;20519;-54
2022/08/22 09:22:21;;;;;;;4.30;3.90;;;;;;;;;;5029435;28;20890;-53
2022/08/22 09:25:00;;;;;;;4.50;4.03;;;;;;;;;;4965300;28;20450;-52
2022/08/22 09:27:31;;;;;;;5.00;4.50;;;;;;;;;;5028623;28;20517;-55
2022/08/22 09:30:06;;;;;;;7.80;4.40;;;;;;;;;;4989834;28;20474;-54
2022/08/22 09:32:53;;;;;;;4.23;3.73;;;;;;;;;;5032098;28;20565;-53
2022/08/22 09:35:25;;;;;;;4.93;4.13;;;;;;;;;;5027450;28;20440;-53
2022/08/22 09:37:51;;;;;;;4.30;3.90;;;;;;;;;;5032831;28;20480;-54
2022/08/22 09:40:24;;;;;;;7.17;4.23;;;;;;;;;;5021774;28;20427;-53
2022/08/22 09:43:07;;;;;;;5.00;4.00;;;;;;;;;;5012859;28;20462;-53
2022/08/22 09:45:52;;;;;;;5.63;4.03;;;;;;;;;;5004079;28;20458;-54
2022/08/22 09:48:18;;;;;;;5.30;3.73;;;;;;;;;;5028053;28;20851;-53
2022/08/22 09:50:48;;;;;;;4.00;3.60;;;;;;;;;;5009726;28;20479;-54
2022/08/22 09:53:24;;;;;;;5.77;4.40;;;;;;;;;;5007214;28;20499;-53
2022/08/22 09:55:53;;;;;;;5.13;4.27;;;;;;;;;;4987975;28;20435;-54
2022/08/22 09:58:28;;;;;;;4.47;3.70;;;;;;;;;;5024611;28;20468;-54
2022/08/22 10:00:55;;;;;;;4.80;3.40;;;;;;;;;;5010287;28;20435;-53
2022/08/22 10:03:21;;;;;;;4.70;3.90;;;;;;;;;;5009618;28;20435;-53
2022/08/22 10:05:51;;;;;;;4.60;3.80;;;;;;;;;;5020363;28;20805;-55
2022/08/22 10:08:19;;;;;;;4.77;4.27;;;;;;;;;;5028576;28;20261;-55
2022/08/22 10:10:54;;;;;;;4.87;3.97;;;;;;;;;;5003021;28;20497;-54
2022/08/22 10:13:23;;;;;;;4.63;4.23;;;;;;;;;;5027936;28;20441;-54
2022/08/22 10:15:55;;;;;;;5.63;4.40;;;;;;;;;;5022065;28;21000;-54
2022/08/22 10:18:37;;;;;;;7.60;4.30;;;;;;;;;;5008384;28;20439;-54
2022/08/22 10:21:08;;;;;;;5.50;4.30;;;;;;;;;;4991286;28;20818;-54
2022/08/22 10:23:40;;;;;;;4.40;4.00;;;;;;;;;;5017798;28;20431;-54
2022/08/22 10:26:21;;;;;;;4.80;4.10;;;;;;;;;;4994923;28;20427;-54
2022/08/22 10:28:50;;;;;;;10.60;3.90;;;;;;;;;;5020881;28;20435;-54
2022/08/22 10:31:23;;;;;;;5.70;3.97;;;;;;;;;;5024949;28;20446;-54
2022/08/22 10:33:49;;;;;;;7.30;4.87;;;;;;;;;;5010843;28;20504;-55
2022/08/22 10:36:16;;;;;;;5.03;4.53;;;;;;;;;;5020724;28;20431;-54
2022/08/22 10:38:44;;;;;;;4.10;3.63;;;;;;;;;;5009804;28;20160;-54
2022/08/22 10:41:25;;;;;;;4.90;2.90;;;;;;;;;;5013772;28;20519;-54
2022/08/22 10:43:52;;;;;;;3.93;3.63;;;;;;;;;;5027828;28;20446;-55
2022/08/22 10:46:23;;;;;;;4.43;4.00;;;;;;;;;;5003744;28;20484;-55
2022/08/22 10:48:55;;;;;;;3.90;3.40;;;;;;;;;;5020940;28;20524;-54
2022/08/22 10:51:40;;;;;;;7.00;4.23;;;;;;;;;;5020521;28;20466;-52
2022/08/22 10:54:14;;;;;;;6.60;3.60;;;;;;;;;;5022411;28;20963;-54
2022/08/22 10:56:40;;;;;;;4.50;4.07;;;;;;;;;;5019566;28;20436;-54
2022/08/22 10:59:10;;;;;;;4.10;3.40;;;;;;;;;;4984042;28;20852;-54
2022/08/22 11:01:39;;;;;;;5.10;3.83;;;;;;;;;;5010813;28;20193;-54
2022/08/22 11:04:05;;;;;;;9.93;5.10;;;;;;;;;;5003965;28;21256;-55
2022/08/22 11:06:37;;;;;;;4.60;3.33;;;;;;;;;;5017929;28;20467;-54
2022/08/22 11:09:06;;;;;;;5.17;3.40;;;;;;;;;;5016341;28;20487;-54
2022/08/22 11:11:43;;;;;;;3.57;3.27;;;;;;;;;;5021863;28;20442;-54
2022/08/22 11:14:16;;;;;;;5.70;3.30;;;;;;;;;;5019101;28;20435;-55
2022/08/22 11:16:42;;;;;;;4.67;3.60;;;;;;;;;;5025324;28;20479;-54
2022/08/22 11:19:08;;;;;;;3.90;3.50;;;;;;;;;;5019003;28;20450;-54
2022/08/22 11:21:49;;;;;;;4.83;4.03;;;;;;;;;;5008609;28;20446;-55
2022/08/22 11:24:30;;;;;;;4.47;3.73;;;;;;;;;;5014055;28;20239;-54
2022/08/22 11:27:07;;;;;;;4.40;4.00;;;;;;;;;;5018936;28;21079;-54
2022/08/22 11:29:40;;;;;;;5.13;4.00;;;;;;;;;;4966666;28;20439;-54
2022/08/22 11:32:12;;;;;;;4.73;3.30;;;;;;;;;;5005542;28;20471;-54
2022/08/22 11:34:48;;;;;;;5.83;3.70;;;;;;;;;;5021912;28;20597;-54
2022/08/22 11:37:33;;;;;;;3.50;3.20;;;;;;;;;;4999629;28;20443;-54
2022/08/22 11:40:25;;;;;;;3.70;3.20;;;;;;;;;;5016845;28;20864;-54
2022/08/22 11:42:51;;;;;;;5.80;4.20;;;;;;;;;;5020185;28;20451;-55
2022/08/22 11:45:19;;;;;;;4.60;4.13;;;;;;;;;;5021653;28;20435;-54
2022/08/22 11:47:46;;;;;;;3.97;3.57;;;;;;;;;;5009431;28;20289;-54
2022/08/22 11:50:18;;;;;;;4.07;3.53;;;;;;;;;;5016216;28;20517;-54
2022/08/22 11:52:45;;;;;;;5.00;4.03;;;;;;;;;;4995605;28;20478;-55
2022/08/22 11:55:17;;;;;;;5.27;3.80;;;;;;;;;;5011929;28;20973;-55
2022/08/22 11:57:54;;;;;;;5.00;4.50;;;;;;;;;;5009825;28;20438;-52
2022/08/22 12:00:20;;;;;;;3.70;3.40;;;;;;;;;;4973509;28;20446;-52
2022/08/22 12:02:55;;;;;;;4.40;3.30;;;;;;;;;;5026507;28;20519;-55
2022/08/22 12:05:26;;;;;;;3.27;2.80;;;;;;;;;;5013946;28;20188;-54
2022/08/22 12:08:02;;;;;;;4.17;3.37;;;;;;;;;;5004730;28;20566;-54
2022/08/22 12:10:29;;;;;;;4.10;3.07;;;;;;;;;;5014834;28;21124;-55
2022/08/22 12:12:59;;;;;;;4.00;3.40;;;;;;;;;;5002842;28;20438;-54
2022/08/22 12:15:28;;;;;;;3.90;2.77;;;;;;;;;;5022048;28;20502;-55
2022/08/22 12:18:00;;;;;;;3.77;2.93;;;;;;;;;;5028527;28;21091;-55
2022/08/22 12:20:41;;;;;;;4.53;3.60;;;;;;;;;;5005472;28;20443;-53
2022/08/22 12:23:10;;;;;;;4.60;3.40;;;;;;;;;;5022018;28;20882;-52
2022/08/22 12:25:55;;;;;;;4.10;2.80;;;;;;;;;;5006224;28;20441;-54
2022/08/22 12:28:30;;;;;;;4.90;4.00;;;;;;;;;;5023974;28;20453;-53
2022/08/22 12:31:05;;;;;;;4.30;3.90;;;;;;;;;;4967394;28;20488;-54
2022/08/22 12:33:31;;;;;;;3.53;3.23;;;;;;;;;;5031069;28;20430;-54
2022/08/22 12:36:03;;;;;;;4.10;3.70;;;;;;;;;;5027001;28;20442;-54
2022/08/22 12:38:35;;;;;;;4.10;3.70;;;;;;;;;;5026418;28;20192;-54
2022/08/22 12:41:20;;;;;;;4.73;3.80;;;;;;;;;;4998514;28;20439;-53
2022/08/22 12:44:06;;;;;;;6.33;3.87;;;;;;;;;;5023270;28;20576;-53
2022/08/22 12:46:35;;;;;;;5.30;4.80;;;;;;;;;;4975334;28;20490;-52
2022/08/22 12:49:10;;;;;;;5.67;3.40;;;;;;;;;;5031971;28;20983;-53
2022/08/22 12:51:39;;;;;;;4.07;3.40;;;;;;;;;;5006325;28;20497;-53
2022/08/22 12:54:13;;;;;;;4.20;3.80;;;;;;;;;;5030079;28;20477;-54
2022/08/22 12:56:39;;;;;;;4.30;3.90;;;;;;;;;;5018659;28;20431;-54
2022/08/22 12:59:05;;;;;;;4.30;3.90;;;;;;;;;;5032458;28;20508;-54
2022/08/22 13:01:39;;;;;;;3.70;3.10;;;;;;;;;;5009804;28;20200;-54
2022/08/22 13:04:06;;;;;;;4.00;3.60;;;;;;;;;;5010878;28;20172;-54
2022/08/22 13:06:35;;;;;;;4.17;3.50;;;;;;;;;;4960091;28;21012;-54
2022/08/22 13:09:17;;;;;;;5.40;3.70;;;;;;;;;;5013709;28;21152;-54
2022/08/22 13:11:43;;;;;;;3.80;3.40;;;;;;;;;;5008690;28;20446;-54
2022/08/22 13:14:09;;;;;;;3.80;3.37;;;;;;;;;;5024532;28;20427;-53
2022/08/22 13:16:39;;;;;;;5.33;3.90;;;;;;;;;;5006168;28;20458;-53
2022/08/22 13:19:09;;;;;;;3.97;3.67;;;;;;;;;;5021930;28;20518;-54
2022/08/22 13:21:37;;;;;;;4.60;4.10;;;;;;;;;;5003997;28;20443;-54
2022/08/22 13:24:07;;;;;;;3.13;2.83;;;;;;;;;;5030254;28;20427;-53
2022/08/22 13:26:33;;;;;;;5.57;3.57;;;;;;;;;;5007783;28;20482;-54
2022/08/22 13:29:14;;;;;;;3.80;3.37;;;;;;;;;;5023700;28;20436;-54
2022/08/22 13:31:41;;;;;;;3.70;3.20;;;;;;;;;;5013350;28;20523;-54
2022/08/22 13:34:24;;;;;;;3.90;3.40;;;;;;;;;;5016275;28;20433;-54
2022/08/22 13:36:50;;;;;;;4.13;3.53;;;;;;;;;;4974119;28;20457;-54
2022/08/22 13:39:16;;;;;;;6.30;3.50;;;;;;;;;;5026796;28;20945;-54
2022/08/22 13:41:49;;;;;;;5.90;4.27;;;;;;;;;;5012103;28;20444;-53
2022/08/22 13:44:47;;;;;;;3.47;3.17;;;;;;;;;;5028364;28;20192;-54
2022/08/22 13:47:14;;;;;;;4.60;3.53;;;;;;;;;;4972428;28;20569;-53
2022/08/22 13:49:41;;;;;;;5.67;3.57;;;;;;;;;;5008134;28;20420;-54
2022/08/22 13:52:06;;;;;;;3.80;3.27;;;;;;;;;;5025393;28;20438;-53
2022/08/22 13:54:33;;;;;;;5.03;3.73;;;;;;;;;;5019848;28;20486;-54
2022/08/22 13:57:05;;;;;;;4.80;4.23;;;;;;;;;;5018979;28;20181;-53
2022/08/22 13:59:44;;;;;;;4.83;4.13;;;;;;;;;;5011542;28;20439;-53
2022/08/22 14:02:28;;;;;;;4.40;3.83;;;;;;;;;;5021610;28;20443;-54
2022/08/22 14:04:54;;;;;;;4.40;3.47;;;;;;;;;;4993986;28;22064;-54
2022/08/22 14:07:23;;;;;;;4.20;3.80;;;;;;;;;;5013694;28;20479;-53
2022/08/22 14:09:54;;;;;;;5.30;3.83;;;;;;;;;;5025150;28;20478;-52
2022/08/22 14:12:28;;;;;;;5.07;3.70;;;;;;;;;;4985480;28;20450;-53
2022/08/22 14:14:55;;;;;;;4.10;3.77;;;;;;;;;;5011912;28;20451;-54
2022/08/22 14:17:22;;;;;;;4.23;3.80;;;;;;;;;;5023836;28;20802;-53
2022/08/22 14:19:54;;;;;;;5.13;4.17;;;;;;;;;;5027155;28;20427;-53
2022/08/22 14:22:21;;;;;;;4.43;4.03;;;;;;;;;;5004214;28;20443;-53
2022/08/22 14:24:52;;;;;;;4.23;3.70;;;;;;;;;;5011153;28;20488;-53
2022/08/22 14:27:32;;;;;;;4.63;4.00;;;;;;;;;;5015034;28;21059;-54
2022/08/22 14:30:00;;;;;;;4.67;3.90;;;;;;;;;;5028918;28;20471;-54
2022/08/22 14:32:26;;;;;;;4.90;4.40;;;;;;;;;;4985923;28;20552;-54
2022/08/22 14:34:55;;;;;;;4.37;3.97;;;;;;;;;;5028648;28;20432;-54
2022/08/22 14:37:22;;;;;;;5.20;3.80;;;;;;;;;;4978628;28;20199;-53
2022/08/22 14:39:48;;;;;;;4.30;3.40;;;;;;;;;;5009055;28;20488;-53
2022/08/22 14:42:18;;;;;;;3.90;3.50;;;;;;;;;;4986835;28;20443;-52
2022/08/22 14:44:53;;;;;;;5.33;4.03;;;;;;;;;;5027108;28;21132;-53
2022/08/22 14:47:33;;;;;;;4.60;4.20;;;;;;;;;;5001843;28;20543;-54
2022/08/22 14:50:08;;;;;;;5.00;4.30;;;;;;;;;;5024994;28;20986;-53
2022/08/22 14:52:37;;;;;;;4.87;3.67;;;;;;;;;;5021327;28;20455;-54
2022/08/22 14:55:11;;;;;;;5.10;3.20;;;;;;;;;;5026684;28;20435;-52
2022/08/22 14:57:40;;;;;;;4.50;4.10;;;;;;;;;;5001939;28;20969;-53
2022/08/22 15:00:13;;;;;;;3.80;3.33;;;;;;;;;;5011654;28;20424;-53
2022/08/22 15:02:39;;;;;;;7.33;3.87;;;;;;;;;;5007182;28;20471;-53
2022/08/22 15:05:13;;;;;;;4.90;3.83;;;;;;;;;;5008270;28;20877;-53
2022/08/22 15:07:39;;;;;;;6.53;3.97;;;;;;;;;;4996558;28;21026;-53
2022/08/22 15:10:07;;;;;;;3.43;3.13;;;;;;;;;;5009358;28;21159;-52
2022/08/22 15:12:34;;;;;;;4.10;3.40;;;;;;;;;;4958483;28;20527;-53
2022/08/22 15:15:08;;;;;;;3.90;3.50;;;;;;;;;;5007492;28;20471;-53
2022/08/22 15:17:36;;;;;;;3.67;2.70;;;;;;;;;;5003096;28;20446;-53
2022/08/22 15:20:31;;;;;;;4.63;3.37;;;;;;;;;;5020463;28;20423;-53